sensor_id;sensor_type;location;lat;lon;timestamp;temperature;humidity
67275;DHT22;55463;52.324;5.122;2023-02-11T00:01:54;7.34;91.47
67275;DHT22;55463;52.324;5.122;2023-02-11T00:04:40;7.25;91.69
67275;DHT22;55463;52.324;5.122;2023-02-11T00:07:09;7.24;91.76
67275;DHT22;55463;52.324;5.122;2023-02-11T00:16:10;7.04;92.29
67275;DHT22;55463;52.324;5.122;2023-02-11T00:18:46;7.03;92.45
67275;DHT22;55463;52.324;5.122;2023-02-11T00:21:25;6.96;92.58
67275;DHT22;55463;52.324;5.122;2023-02-11T00:23:52;6.90;92.80
67275;DHT22;55463;52.324;5.122;2023-02-11T00:26:34;6.89;92.80
67275;DHT22;55463;52.324;5.122;2023-02-11T00:29:29;6.90;92.93
67275;DHT22;55463;52.324;5.122;2023-02-11T00:32:31;6.85;93.19
67275;DHT22;55463;52.324;5.122;2023-02-11T00:35:10;6.85;93.17
67275;DHT22;55463;52.324;5.122;2023-02-11T00:37:36;6.89;93.26
67275;DHT22;55463;52.324;5.122;2023-02-11T00:40:03;6.83;93.31
67275;DHT22;55463;52.324;5.122;2023-02-11T00:42:31;6.86;93.40
67275;DHT22;55463;52.324;5.122;2023-02-11T00:45:05;6.82;93.55
67275;DHT22;55463;52.324;5.122;2023-02-11T00:47:30;6.76;93.67
67275;DHT22;55463;52.324;5.122;2023-02-11T00:50:05;6.75;93.85
67275;DHT22;55463;52.324;5.122;2023-02-11T00:52:31;6.73;93.96
67275;DHT22;55463;52.324;5.122;2023-02-11T00:55:12;6.68;94.09
67275;DHT22;55463;52.324;5.122;2023-02-11T00:57:37;6.65;94.30
67275;DHT22;55463;52.324;5.122;2023-02-11T01:00:06;6.64;94.49
67275;DHT22;55463;52.324;5.122;2023-02-11T01:02:32;6.56;94.54
67275;DHT22;55463;52.324;5.122;2023-02-11T01:04:57;6.55;94.70
67275;DHT22;55463;52.324;5.122;2023-02-11T01:07:24;6.52;94.78
67275;DHT22;55463;52.324;5.122;2023-02-11T01:09:50;6.46;94.96
67275;DHT22;55463;52.324;5.122;2023-02-11T01:12:16;6.46;95.03
67275;DHT22;55463;52.324;5.122;2023-02-11T01:14:41;6.41;95.22
67275;DHT22;55463;52.324;5.122;2023-02-11T01:17:07;6.39;95.37
67275;DHT22;55463;52.324;5.122;2023-02-11T01:19:39;6.38;95.45
67275;DHT22;55463;52.324;5.122;2023-02-11T01:25:07;6.37;95.40
67275;DHT22;55463;52.324;5.122;2023-02-11T01:27:32;6.31;95.51
67275;DHT22;55463;52.324;5.122;2023-02-11T01:30:08;6.32;95.80
67275;DHT22;55463;52.324;5.122;2023-02-11T01:32:36;6.35;95.81
67275;DHT22;55463;52.324;5.122;2023-02-11T01:35:02;6.30;95.92
67275;DHT22;55463;52.324;5.122;2023-02-11T01:37:34;6.25;95.98
67275;DHT22;55463;52.324;5.122;2023-02-11T01:40:05;6.18;96.13
67275;DHT22;55463;52.324;5.122;2023-02-11T01:42:33;6.03;96.44
67275;DHT22;55463;52.324;5.122;2023-02-11T01:44:59;5.87;96.66
67275;DHT22;55463;52.324;5.122;2023-02-11T01:47:28;5.72;97.06
67275;DHT22;55463;52.324;5.122;2023-02-11T01:49:58;5.60;97.44
67275;DHT22;55463;52.324;5.122;2023-02-11T01:52:33;5.48;97.73
67275;DHT22;55463;52.324;5.122;2023-02-11T01:55:10;5.45;98.13
67275;DHT22;55463;52.324;5.122;2023-02-11T01:57:59;5.35;98.35
67275;DHT22;55463;52.324;5.122;2023-02-11T02:00:31;5.24;98.55
67275;DHT22;55463;52.324;5.122;2023-02-11T02:03:12;5.07;98.75
67275;DHT22;55463;52.324;5.122;2023-02-11T02:06:02;5.03;99.03
67275;DHT22;55463;52.324;5.122;2023-02-11T02:08:55;4.92;98.92
67275;DHT22;55463;52.324;5.122;2023-02-11T02:11:22;4.97;99.28
67275;DHT22;55463;52.324;5.122;2023-02-11T02:13:53;4.90;99.20
67275;DHT22;55463;52.324;5.122;2023-02-11T02:16:25;4.78;99.43
67275;DHT22;55463;52.324;5.122;2023-02-11T02:41:16;4.61;99.99
67275;DHT22;55463;52.324;5.122;2023-02-11T02:43:45;4.61;99.99
67275;DHT22;55463;52.324;5.122;2023-02-11T02:46:16;4.67;99.99
67275;DHT22;55463;52.324;5.122;2023-02-11T02:48:42;4.62;99.99
67275;DHT22;55463;52.324;5.122;2023-02-11T02:56:47;4.37;99.99
67275;DHT22;55463;52.324;5.122;2023-02-11T03:00:07;4.29;99.99
67275;DHT22;55463;52.324;5.122;2023-02-11T03:02:48;4.27;99.99
67275;DHT22;55463;52.324;5.122;2023-02-11T03:05:26;4.24;99.99
67275;DHT22;55463;52.324;5.122;2023-02-11T03:08:12;4.23;99.99
67275;DHT22;55463;52.324;5.122;2023-02-11T03:10:44;4.27;99.99
67275;DHT22;55463;52.324;5.122;2023-02-11T03:13:11;4.33;99.99
67275;DHT22;55463;52.324;5.122;2023-02-11T03:15:42;4.30;99.99
67275;DHT22;55463;52.324;5.122;2023-02-11T03:18:11;4.30;99.99
67275;DHT22;55463;52.324;5.122;2023-02-11T03:20:39;4.36;99.99
67275;DHT22;55463;52.324;5.122;2023-02-11T03:25:51;4.33;99.99
67275;DHT22;55463;52.324;5.122;2023-02-11T03:31:02;4.24;99.99
67275;DHT22;55463;52.324;5.122;2023-02-11T03:34:09;4.25;99.99
67275;DHT22;55463;52.324;5.122;2023-02-11T03:36:44;4.21;99.99
67275;DHT22;55463;52.324;5.122;2023-02-11T03:39:16;4.16;99.99
67275;DHT22;55463;52.324;5.122;2023-02-11T03:41:45;4.13;99.99
67275;DHT22;55463;52.324;5.122;2023-02-11T03:44:13;4.18;99.99
67275;DHT22;55463;52.324;5.122;2023-02-11T03:46:48;4.10;99.99
67275;DHT22;55463;52.324;5.122;2023-02-11T03:49:17;4.27;99.99
67275;DHT22;55463;52.324;5.122;2023-02-11T03:51:45;4.48;99.99
67275;DHT22;55463;52.324;5.122;2023-02-11T03:54:18;4.65;99.99
67275;DHT22;55463;52.324;5.122;2023-02-11T03:56:51;4.79;99.99
67275;DHT22;55463;52.324;5.122;2023-02-11T03:59:20;4.90;99.99
67275;DHT22;55463;52.324;5.122;2023-02-11T04:01:46;4.96;99.99
67275;DHT22;55463;52.324;5.122;2023-02-11T04:04:12;5.03;99.99
67275;DHT22;55463;52.324;5.122;2023-02-11T04:06:38;5.07;99.99
67275;DHT22;55463;52.324;5.122;2023-02-11T04:09:03;5.10;99.99
67275;DHT22;55463;52.324;5.122;2023-02-11T04:11:29;5.16;99.99
67275;DHT22;55463;52.324;5.122;2023-02-11T04:13:54;5.17;99.99
67275;DHT22;55463;52.324;5.122;2023-02-11T04:16:22;5.20;99.99
67275;DHT22;55463;52.324;5.122;2023-02-11T04:18:51;5.23;99.99
67275;DHT22;55463;52.324;5.122;2023-02-11T04:21:16;5.21;99.99
67275;DHT22;55463;52.324;5.122;2023-02-11T04:23:42;5.20;99.99
67275;DHT22;55463;52.324;5.122;2023-02-11T04:26:07;5.30;99.99
67275;DHT22;55463;52.324;5.122;2023-02-11T04:28:33;5.34;99.99
67275;DHT22;55463;52.324;5.122;2023-02-11T04:30:59;5.40;99.94
67275;DHT22;55463;52.324;5.122;2023-02-11T04:33:24;5.40;99.84
67275;DHT22;55463;52.324;5.122;2023-02-11T04:35:50;5.42;99.74
67275;DHT22;55463;52.324;5.122;2023-02-11T04:38:16;5.47;99.67
67275;DHT22;55463;52.324;5.122;2023-02-11T04:40:42;5.47;99.57
67275;DHT22;55463;52.324;5.122;2023-02-11T04:43:07;5.47;99.60
67275;DHT22;55463;52.324;5.122;2023-02-11T04:45:35;5.51;99.61
67275;DHT22;55463;52.324;5.122;2023-02-11T04:48:03;5.52;99.57
67275;DHT22;55463;52.324;5.122;2023-02-11T04:50:29;5.59;99.43
67275;DHT22;55463;52.324;5.122;2023-02-11T04:53:06;5.59;99.39
67275;DHT22;55463;52.324;5.122;2023-02-11T04:55:34;5.59;99.34
67275;DHT22;55463;52.324;5.122;2023-02-11T04:58:02;5.63;99.31
67275;DHT22;55463;52.324;5.122;2023-02-11T05:00:30;5.63;99.25
67275;DHT22;55463;52.324;5.122;2023-02-11T05:02:56;5.60;99.19
67275;DHT22;55463;52.324;5.122;2023-02-11T05:05:30;5.58;99.16
67275;DHT22;55463;52.324;5.122;2023-02-11T05:07:56;5.63;99.16
67275;DHT22;55463;52.324;5.122;2023-02-11T05:10:21;5.59;99.14
67275;DHT22;55463;52.324;5.122;2023-02-11T05:12:49;5.65;99.16
67275;DHT22;55463;52.324;5.122;2023-02-11T05:15:17;5.62;99.15
67275;DHT22;55463;52.324;5.122;2023-02-11T05:17:51;5.63;99.14
67275;DHT22;55463;52.324;5.122;2023-02-11T05:20:19;5.68;99.11
67275;DHT22;55463;52.324;5.122;2023-02-11T05:22:45;5.68;99.12
67275;DHT22;55463;52.324;5.122;2023-02-11T05:25:10;5.70;99.16
67275;DHT22;55463;52.324;5.122;2023-02-11T05:27:36;5.68;99.07
67275;DHT22;55463;52.324;5.122;2023-02-11T05:30:01;5.69;99.14
67275;DHT22;55463;52.324;5.122;2023-02-11T05:32:27;5.72;99.17
67275;DHT22;55463;52.324;5.122;2023-02-11T05:34:55;5.76;99.18
67275;DHT22;55463;52.324;5.122;2023-02-11T05:37:24;5.75;99.11
67275;DHT22;55463;52.324;5.122;2023-02-11T05:39:49;5.77;99.13
67275;DHT22;55463;52.324;5.122;2023-02-11T05:42:50;5.80;99.19
67275;DHT22;55463;52.324;5.122;2023-02-11T05:45:15;5.80;99.22
67275;DHT22;55463;52.324;5.122;2023-02-11T05:47:41;5.86;99.36
67275;DHT22;55463;52.324;5.122;2023-02-11T05:50:06;5.92;99.42
67275;DHT22;55463;52.324;5.122;2023-02-11T05:52:32;5.93;99.40
67275;DHT22;55463;52.324;5.122;2023-02-11T05:54:57;5.93;99.37
67275;DHT22;55463;52.324;5.122;2023-02-11T05:57:25;5.94;99.47
67275;DHT22;55463;52.324;5.122;2023-02-11T05:59:51;5.99;99.41
67275;DHT22;55463;52.324;5.122;2023-02-11T06:02:18;5.97;99.52
67275;DHT22;55463;52.324;5.122;2023-02-11T06:04:46;6.04;99.60
67275;DHT22;55463;52.324;5.122;2023-02-11T06:07:12;6.04;99.58
67275;DHT22;55463;52.324;5.122;2023-02-11T06:09:37;6.09;99.57
67275;DHT22;55463;52.324;5.122;2023-02-11T06:12:03;6.04;99.53
67275;DHT22;55463;52.324;5.122;2023-02-11T06:14:31;6.04;99.56
67275;DHT22;55463;52.324;5.122;2023-02-11T06:16:57;6.09;99.57
67275;DHT22;55463;52.324;5.122;2023-02-11T06:19:25;6.09;99.61
67275;DHT22;55463;52.324;5.122;2023-02-11T06:21:51;6.11;99.68
67275;DHT22;55463;52.324;5.122;2023-02-11T06:24:16;6.14;99.64
67275;DHT22;55463;52.324;5.122;2023-02-11T06:26:42;6.11;99.65
67275;DHT22;55463;52.324;5.122;2023-02-11T06:29:07;6.16;99.64
67275;DHT22;55463;52.324;5.122;2023-02-11T06:31:33;6.21;99.69
67275;DHT22;55463;52.324;5.122;2023-02-11T06:33:59;6.24;99.59
67275;DHT22;55463;52.324;5.122;2023-02-11T06:36:25;6.25;99.65
67275;DHT22;55463;52.324;5.122;2023-02-11T06:38:51;6.22;99.70
67275;DHT22;55463;52.324;5.122;2023-02-11T06:41:17;6.30;99.76
67275;DHT22;55463;52.324;5.122;2023-02-11T06:43:46;6.30;99.68
67275;DHT22;55463;52.324;5.122;2023-02-11T06:46:11;6.28;99.71
67275;DHT22;55463;52.324;5.122;2023-02-11T06:48:37;6.34;99.80
67275;DHT22;55463;52.324;5.122;2023-02-11T06:51:08;6.34;99.78
67275;DHT22;55463;52.324;5.122;2023-02-11T06:53:36;6.34;99.84
67275;DHT22;55463;52.324;5.122;2023-02-11T06:56:07;6.31;99.87
67275;DHT22;55463;52.324;5.122;2023-02-11T06:58:33;6.24;99.99
67275;DHT22;55463;52.324;5.122;2023-02-11T07:00:59;6.14;99.99
67275;DHT22;55463;52.324;5.122;2023-02-11T07:03:25;6.03;99.99
67275;DHT22;55463;52.324;5.122;2023-02-11T07:05:50;6.03;99.99
67275;DHT22;55463;52.324;5.122;2023-02-11T07:08:16;5.89;99.99
67275;DHT22;55463;52.324;5.122;2023-02-11T07:10:41;5.82;99.99
67275;DHT22;55463;52.324;5.122;2023-02-11T07:13:07;5.69;99.99
67275;DHT22;55463;52.324;5.122;2023-02-11T07:15:32;5.66;99.99
67275;DHT22;55463;52.324;5.122;2023-02-11T07:17:58;5.68;99.99
67275;DHT22;55463;52.324;5.122;2023-02-11T07:20:27;5.60;99.99
67275;DHT22;55463;52.324;5.122;2023-02-11T07:22:52;5.60;99.99
67275;DHT22;55463;52.324;5.122;2023-02-11T07:25:18;5.56;99.99
67275;DHT22;55463;52.324;5.122;2023-02-11T07:27:43;5.60;99.99
67275;DHT22;55463;52.324;5.122;2023-02-11T07:30:09;5.55;99.99
67275;DHT22;55463;52.324;5.122;2023-02-11T07:32:35;5.56;99.99
67275;DHT22;55463;52.324;5.122;2023-02-11T07:35:00;5.51;99.99
67275;DHT22;55463;52.324;5.122;2023-02-11T07:37:26;5.54;99.99
67275;DHT22;55463;52.324;5.122;2023-02-11T07:40:06;5.54;99.99
67275;DHT22;55463;52.324;5.122;2023-02-11T07:42:56;5.54;99.99
67275;DHT22;55463;52.324;5.122;2023-02-11T07:45:27;5.60;99.99
67275;DHT22;55463;52.324;5.122;2023-02-11T07:47:52;5.62;99.99
67275;DHT22;55463;52.324;5.122;2023-02-11T07:50:18;5.60;99.99
67275;DHT22;55463;52.324;5.122;2023-02-11T07:52:43;5.65;99.99
67275;DHT22;55463;52.324;5.122;2023-02-11T07:55:12;5.68;99.99
67275;DHT22;55463;52.324;5.122;2023-02-11T07:57:37;5.72;99.99
67275;DHT22;55463;52.324;5.122;2023-02-11T08:00:04;5.77;99.99
67275;DHT22;55463;52.324;5.122;2023-02-11T08:02:29;5.80;99.99
67275;DHT22;55463;52.324;5.122;2023-02-11T08:04:55;5.93;99.99
67275;DHT22;55463;52.324;5.122;2023-02-11T08:07:20;5.94;99.99
67275;DHT22;55463;52.324;5.122;2023-02-11T08:09:46;6.00;99.99
67275;DHT22;55463;52.324;5.122;2023-02-11T08:12:26;6.09;99.99
67275;DHT22;55463;52.324;5.122;2023-02-11T08:14:54;6.11;99.99
67275;DHT22;55463;52.324;5.122;2023-02-11T08:17:22;6.14;99.99
67275;DHT22;55463;52.324;5.122;2023-02-11T08:19:48;6.24;99.99
67275;DHT22;55463;52.324;5.122;2023-02-11T08:22:13;6.30;99.99
67275;DHT22;55463;52.324;5.122;2023-02-11T08:24:39;6.41;99.99
67275;DHT22;55463;52.324;5.122;2023-02-11T08:27:04;6.49;99.99
67275;DHT22;55463;52.324;5.122;2023-02-11T08:29:35;6.59;99.99
67275;DHT22;55463;52.324;5.122;2023-02-11T08:32:01;6.62;99.99
67275;DHT22;55463;52.324;5.122;2023-02-11T08:34:26;6.69;99.99
67275;DHT22;55463;52.324;5.122;2023-02-11T08:36:52;6.77;99.99
67275;DHT22;55463;52.324;5.122;2023-02-11T08:39:20;6.89;99.99
67275;DHT22;55463;52.324;5.122;2023-02-11T08:41:51;6.97;99.99
67275;DHT22;55463;52.324;5.122;2023-02-11T08:44:18;7.05;99.99
67275;DHT22;55463;52.324;5.122;2023-02-11T08:46:44;7.11;99.99
67275;DHT22;55463;52.324;5.122;2023-02-11T08:49:10;7.21;99.99
67275;DHT22;55463;52.324;5.122;2023-02-11T08:51:35;7.28;99.99
67275;DHT22;55463;52.324;5.122;2023-02-11T08:54:01;7.35;99.85
67275;DHT22;55463;52.324;5.122;2023-02-11T08:56:27;7.39;99.70
67275;DHT22;55463;52.324;5.122;2023-02-11T08:58:55;7.47;99.59
67275;DHT22;55463;52.324;5.122;2023-02-11T09:01:30;7.54;99.41
67275;DHT22;55463;52.324;5.122;2023-02-11T09:03:57;7.65;99.26
67275;DHT22;55463;52.324;5.122;2023-02-11T09:06:24;7.69;98.99
67275;DHT22;55463;52.324;5.122;2023-02-11T09:08:52;7.76;98.82
67275;DHT22;55463;52.324;5.122;2023-02-11T09:11:31;7.84;98.53
67275;DHT22;55463;52.324;5.122;2023-02-11T09:13:57;7.90;98.18
67275;DHT22;55463;52.324;5.122;2023-02-11T09:16:29;7.97;97.99
67275;DHT22;55463;52.324;5.122;2023-02-11T09:18:59;8.01;97.91
67275;DHT22;55463;52.324;5.122;2023-02-11T09:21:25;8.11;97.78
67275;DHT22;55463;52.324;5.122;2023-02-11T09:23:51;8.18;97.62
67275;DHT22;55463;52.324;5.122;2023-02-11T09:26:28;8.25;97.01
67275;DHT22;55463;52.324;5.122;2023-02-11T09:28:55;8.32;96.78
67275;DHT22;55463;52.324;5.122;2023-02-11T09:31:25;8.38;96.46
67275;DHT22;55463;52.324;5.122;2023-02-11T09:33:53;8.45;96.22
67275;DHT22;55463;52.324;5.122;2023-02-11T09:36:21;8.49;95.95
67275;DHT22;55463;52.324;5.122;2023-02-11T09:38:48;8.57;95.83
67275;DHT22;55463;52.324;5.122;2023-02-11T09:43:53;8.73;95.04
67275;DHT22;55463;52.324;5.122;2023-02-11T09:46:20;8.80;94.68
67275;DHT22;55463;52.324;5.122;2023-02-11T09:48:51;8.87;94.42
67275;DHT22;55463;52.324;5.122;2023-02-11T09:51:43;8.94;93.91
67275;DHT22;55463;52.324;5.122;2023-02-11T09:54:18;9.01;93.47
67275;DHT22;55463;52.324;5.122;2023-02-11T09:56:45;9.07;93.47
67275;DHT22;55463;52.324;5.122;2023-02-11T09:59:15;9.10;93.55
67275;DHT22;55463;52.324;5.122;2023-02-11T10:04:40;9.05;93.20
67275;DHT22;55463;52.324;5.122;2023-02-11T10:07:33;9.01;93.07
67275;DHT22;55463;52.324;5.122;2023-02-11T10:10:32;8.99;93.56
67275;DHT22;55463;52.324;5.122;2023-02-11T10:16:03;8.99;93.67
67275;DHT22;55463;52.324;5.122;2023-02-11T10:21:22;9.12;93.04
67275;DHT22;55463;52.324;5.122;2023-02-11T10:23:56;9.17;92.87
67275;DHT22;55463;52.324;5.122;2023-02-11T10:26:26;9.31;92.44
67275;DHT22;55463;52.324;5.122;2023-02-11T10:28:55;9.35;91.84
67275;DHT22;55463;52.324;5.122;2023-02-11T10:31:26;9.43;91.86
67275;DHT22;55463;52.324;5.122;2023-02-11T10:33:59;9.52;91.72
67275;DHT22;55463;52.324;5.122;2023-02-11T10:36:31;9.60;91.38
67275;DHT22;55463;52.324;5.122;2023-02-11T10:39:17;9.69;91.34
67275;DHT22;55463;52.324;5.122;2023-02-11T10:41:47;9.74;90.65
67275;DHT22;55463;52.324;5.122;2023-02-11T10:44:25;9.77;90.69
67275;DHT22;55463;52.324;5.122;2023-02-11T10:46:52;9.86;90.64
67275;DHT22;55463;52.324;5.122;2023-02-11T10:49:39;9.94;90.64
67275;DHT22;55463;52.324;5.122;2023-02-11T10:54:36;10.22;89.23
67275;DHT22;55463;52.324;5.122;2023-02-11T10:57:02;10.34;88.93
67275;DHT22;55463;52.324;5.122;2023-02-11T10:59:33;10.42;88.31
67275;DHT22;55463;52.324;5.122;2023-02-11T11:02:18;10.49;88.09
67275;DHT22;55463;52.324;5.122;2023-02-11T11:04:45;10.59;87.42
67275;DHT22;55463;52.324;5.122;2023-02-11T11:09:55;10.64;87.39
67275;DHT22;55463;52.324;5.122;2023-02-11T11:17:41;11.03;86.63
67275;DHT22;55463;52.324;5.122;2023-02-11T11:20:33;11.08;85.99
67275;DHT22;55463;52.324;5.122;2023-02-11T11:23:16;11.06;85.46
67275;DHT22;55463;52.324;5.122;2023-02-11T11:25:44;11.21;86.19
67275;DHT22;55463;52.324;5.122;2023-02-11T11:28:24;11.10;85.19
67275;DHT22;55463;52.324;5.122;2023-02-11T11:30:52;11.04;85.10
67275;DHT22;55463;52.324;5.122;2023-02-11T11:33:32;11.01;85.92
67275;DHT22;55463;52.324;5.122;2023-02-11T11:38:28;11.00;85.45
67275;DHT22;55463;52.324;5.122;2023-02-11T11:44:22;10.94;85.23
67275;DHT22;55463;52.324;5.122;2023-02-11T11:46:53;10.90;85.65
67275;DHT22;55463;52.324;5.122;2023-02-11T11:55:19;11.11;85.35
67275;DHT22;55463;52.324;5.122;2023-02-11T11:57:47;11.21;84.79
67275;DHT22;55463;52.324;5.122;2023-02-11T12:00:19;11.28;84.58
67275;DHT22;55463;52.324;5.122;2023-02-11T12:03:16;11.36;84.31
67275;DHT22;55463;52.324;5.122;2023-02-11T12:24:47;11.61;83.56
67275;DHT22;55463;52.324;5.122;2023-02-11T12:36:01;11.72;82.19
67275;DHT22;55463;52.324;5.122;2023-02-11T12:38:56;11.81;82.26
67275;DHT22;55463;52.324;5.122;2023-02-11T12:44:51;12.07;80.61
67275;DHT22;55463;52.324;5.122;2023-02-11T12:50:19;12.13;81.33
67275;DHT22;55463;52.324;5.122;2023-02-11T12:55:27;12.18;80.10
67275;DHT22;55463;52.324;5.122;2023-02-11T12:57:56;12.26;80.09
67275;DHT22;55463;52.324;5.122;2023-02-11T13:00:32;12.35;80.49
67275;DHT22;55463;52.324;5.122;2023-02-11T13:03:09;12.43;80.54
67275;DHT22;55463;52.324;5.122;2023-02-11T13:05:43;12.38;79.80
67275;DHT22;55463;52.324;5.122;2023-02-11T13:08:22;12.24;80.00
67275;DHT22;55463;52.324;5.122;2023-02-11T13:10:55;12.10;80.56
67275;DHT22;55463;52.324;5.122;2023-02-11T13:13:28;11.98;80.37
67275;DHT22;55463;52.324;5.122;2023-02-11T13:16:05;11.89;80.31
67275;DHT22;55463;52.324;5.122;2023-02-11T13:18:37;12.00;80.57
67275;DHT22;55463;52.324;5.122;2023-02-11T13:26:30;11.98;80.45
67275;DHT22;55463;52.324;5.122;2023-02-11T13:32:12;12.11;80.19
67275;DHT22;55463;52.324;5.122;2023-02-11T13:37:23;12.07;80.60
67275;DHT22;55463;52.324;5.122;2023-02-11T13:40:02;12.10;79.96
67275;DHT22;55463;52.324;5.122;2023-02-11T13:42:29;12.15;80.10
67275;DHT22;55463;52.324;5.122;2023-02-11T13:44:56;12.15;80.05
67275;DHT22;55463;52.324;5.122;2023-02-11T13:47:29;12.26;79.73
67275;DHT22;55463;52.324;5.122;2023-02-11T13:49:55;12.36;79.86
67275;DHT22;55463;52.324;5.122;2023-02-11T13:52:33;12.29;79.14
67275;DHT22;55463;52.324;5.122;2023-02-11T13:57:37;12.10;79.32
67275;DHT22;55463;52.324;5.122;2023-02-11T14:03:20;11.93;80.28
67275;DHT22;55463;52.324;5.122;2023-02-11T14:19:38;11.70;81.28
67275;DHT22;55463;52.324;5.122;2023-02-11T14:22:14;11.59;80.98
67275;DHT22;55463;52.324;5.122;2023-02-11T14:24:51;11.52;81.44
67275;DHT22;55463;52.324;5.122;2023-02-11T14:27:40;11.51;81.51
67275;DHT22;55463;52.324;5.122;2023-02-11T14:33:15;11.45;81.17
67275;DHT22;55463;52.324;5.122;2023-02-11T14:41:43;11.27;81.93
67275;DHT22;55463;52.324;5.122;2023-02-11T14:44:29;11.25;82.10
67275;DHT22;55463;52.324;5.122;2023-02-11T14:46:55;11.25;82.08
67275;DHT22;55463;52.324;5.122;2023-02-11T14:49:28;11.18;81.89
67275;DHT22;55463;52.324;5.122;2023-02-11T14:51:59;11.12;82.47
67275;DHT22;55463;52.324;5.122;2023-02-11T14:54:28;11.06;82.78
67275;DHT22;55463;52.324;5.122;2023-02-11T14:57:13;11.18;82.77
67275;DHT22;55463;52.324;5.122;2023-02-11T14:59:51;11.18;82.07
67275;DHT22;55463;52.324;5.122;2023-02-11T15:02:26;11.27;81.96
67275;DHT22;55463;52.324;5.122;2023-02-11T15:04:52;11.22;81.80
67275;DHT22;55463;52.324;5.122;2023-02-11T15:07:20;11.24;81.76
67275;DHT22;55463;52.324;5.122;2023-02-11T15:09:51;11.24;81.98
67275;DHT22;55463;52.324;5.122;2023-02-11T15:12:27;11.17;81.96
67275;DHT22;55463;52.324;5.122;2023-02-11T15:14:55;11.08;82.04
67275;DHT22;55463;52.324;5.122;2023-02-11T15:17:25;11.01;82.79
67275;DHT22;55463;52.324;5.122;2023-02-11T15:19:56;10.99;83.11
67275;DHT22;55463;52.324;5.122;2023-02-11T15:22:28;10.93;82.66
67275;DHT22;55463;52.324;5.122;2023-02-11T15:25:10;10.80;83.25
67275;DHT22;55463;52.324;5.122;2023-02-11T15:27:50;10.73;83.58
67275;DHT22;55463;52.324;5.122;2023-02-11T15:33:18;10.55;84.13
67275;DHT22;55463;52.324;5.122;2023-02-11T15:35:45;10.49;84.39
67275;DHT22;55463;52.324;5.122;2023-02-11T15:38:12;10.42;84.63
67275;DHT22;55463;52.324;5.122;2023-02-11T15:40:37;10.28;85.18
67275;DHT22;55463;52.324;5.122;2023-02-11T15:43:08;10.22;85.11
67275;DHT22;55463;52.324;5.122;2023-02-11T15:45:41;10.17;85.10
67275;DHT22;55463;52.324;5.122;2023-02-11T15:48:16;10.08;85.31
67275;DHT22;55463;52.324;5.122;2023-02-11T15:51:02;10.00;85.59
67275;DHT22;55463;52.324;5.122;2023-02-11T15:53:49;9.91;85.76
67275;DHT22;55463;52.324;5.122;2023-02-11T15:58:56;9.79;86.43
67275;DHT22;55463;52.324;5.122;2023-02-11T16:01:32;9.77;86.41
67275;DHT22;55463;52.324;5.122;2023-02-11T16:03:58;9.69;86.47
67275;DHT22;55463;52.324;5.122;2023-02-11T16:06:36;9.66;86.69
67275;DHT22;55463;52.324;5.122;2023-02-11T16:11:58;9.50;87.23
67275;DHT22;55463;52.324;5.122;2023-02-11T16:16:59;9.49;87.36
67275;DHT22;55463;52.324;5.122;2023-02-11T16:19:34;9.45;87.44
67275;DHT22;55463;52.324;5.122;2023-02-11T16:22:06;9.36;87.82
67275;DHT22;55463;52.324;5.122;2023-02-11T16:24:36;9.29;88.00
67275;DHT22;55463;52.324;5.122;2023-02-11T16:29:50;9.15;88.47
67275;DHT22;55463;52.324;5.122;2023-02-11T16:32:21;9.14;88.41
67275;DHT22;55463;52.324;5.122;2023-02-11T16:34:51;9.08;88.58
67275;DHT22;55463;52.324;5.122;2023-02-11T16:37:20;9.05;88.71
67275;DHT22;55463;52.324;5.122;2023-02-11T16:39:49;9.03;88.65
67275;DHT22;55463;52.324;5.122;2023-02-11T16:42:19;8.99;88.82
67275;DHT22;55463;52.324;5.122;2023-02-11T16:44:47;8.91;89.23
67275;DHT22;55463;52.324;5.122;2023-02-11T16:47:21;8.86;89.39
67275;DHT22;55463;52.324;5.122;2023-02-11T16:49:53;8.80;89.50
67275;DHT22;55463;52.324;5.122;2023-02-11T16:52:20;8.81;89.61
67275;DHT22;55463;52.324;5.122;2023-02-11T16:54:48;8.73;89.47
67275;DHT22;55463;52.324;5.122;2023-02-11T16:57:19;8.73;89.63
67275;DHT22;55463;52.324;5.122;2023-02-11T16:59:46;8.60;89.92
67275;DHT22;55463;52.324;5.122;2023-02-11T17:02:17;8.56;90.02
67275;DHT22;55463;52.324;5.122;2023-02-11T17:04:47;8.49;90.25
67275;DHT22;55463;52.324;5.122;2023-02-11T17:07:13;8.44;90.46
67275;DHT22;55463;52.324;5.122;2023-02-11T17:09:41;8.32;90.65
67275;DHT22;55463;52.324;5.122;2023-02-11T17:12:16;8.31;90.81
67275;DHT22;55463;52.324;5.122;2023-02-11T17:14:42;8.31;91.02
67275;DHT22;55463;52.324;5.122;2023-02-11T17:17:08;8.28;91.25
67275;DHT22;55463;52.324;5.122;2023-02-11T17:19:38;8.29;91.07
67275;DHT22;55463;52.324;5.122;2023-02-11T17:22:04;8.28;90.99
67275;DHT22;55463;52.324;5.122;2023-02-11T17:24:30;8.28;91.11
67275;DHT22;55463;52.324;5.122;2023-02-11T17:26:55;8.25;91.07
67275;DHT22;55463;52.324;5.122;2023-02-11T17:29:24;8.24;91.05
67275;DHT22;55463;52.324;5.122;2023-02-11T17:31:53;8.22;91.08
67275;DHT22;55463;52.324;5.122;2023-02-11T17:34:20;8.24;91.33
67275;DHT22;55463;52.324;5.122;2023-02-11T17:36:48;8.20;91.30
67275;DHT22;55463;52.324;5.122;2023-02-11T17:39:17;8.20;91.42
67275;DHT22;55463;52.324;5.122;2023-02-11T17:41:46;8.24;91.48
67275;DHT22;55463;52.324;5.122;2023-02-11T17:44:11;8.27;91.33
67275;DHT22;55463;52.324;5.122;2023-02-11T17:46:38;8.27;91.33
67275;DHT22;55463;52.324;5.122;2023-02-11T17:49:07;8.28;91.50
67275;DHT22;55463;52.324;5.122;2023-02-11T17:51:35;8.24;91.50
67275;DHT22;55463;52.324;5.122;2023-02-11T17:54:06;8.25;91.55
67275;DHT22;55463;52.324;5.122;2023-02-11T17:56:32;8.27;91.52
67275;DHT22;55463;52.324;5.122;2023-02-11T17:59:08;8.25;91.59
67275;DHT22;55463;52.324;5.122;2023-02-11T18:01:37;8.27;91.58
67275;DHT22;55463;52.324;5.122;2023-02-11T18:04:04;8.22;91.66
67275;DHT22;55463;52.324;5.122;2023-02-11T18:06:30;8.27;91.62
67275;DHT22;55463;52.324;5.122;2023-02-11T18:08:58;8.27;91.59
67275;DHT22;55463;52.324;5.122;2023-02-11T18:11:31;8.27;91.60
67275;DHT22;55463;52.324;5.122;2023-02-11T18:14:01;8.21;91.70
67275;DHT22;55463;52.324;5.122;2023-02-11T18:16:26;8.21;91.80
67275;DHT22;55463;52.324;5.122;2023-02-11T18:18:56;8.20;91.80
67275;DHT22;55463;52.324;5.122;2023-02-11T18:21:23;8.21;91.87
67275;DHT22;55463;52.324;5.122;2023-02-11T18:23:49;8.18;91.87
67275;DHT22;55463;52.324;5.122;2023-02-11T18:26:16;8.21;92.03
67275;DHT22;55463;52.324;5.122;2023-02-11T18:28:42;8.18;91.95
67275;DHT22;55463;52.324;5.122;2023-02-11T18:31:08;8.15;92.06
67275;DHT22;55463;52.324;5.122;2023-02-11T18:33:36;8.12;92.17
67275;DHT22;55463;52.324;5.122;2023-02-11T18:36:07;8.11;92.17
67275;DHT22;55463;52.324;5.122;2023-02-11T18:38:36;8.10;92.23
67275;DHT22;55463;52.324;5.122;2023-02-11T18:41:02;8.10;92.18
67275;DHT22;55463;52.324;5.122;2023-02-11T18:43:31;8.17;92.17
67275;DHT22;55463;52.324;5.122;2023-02-11T18:45:57;8.17;92.11
67275;DHT22;55463;52.324;5.122;2023-02-11T18:48:27;8.14;92.15
67275;DHT22;55463;52.324;5.122;2023-02-11T18:50:55;8.14;92.27